sensor_id;sensor_type;location;lat;lon;timestamp;P1;P2;P0
39955;PMS5003;25631;51.516;-0.470;2023-05-14T00:02:05;13;13;
39955;PMS5003;25631;51.516;-0.470;2023-05-14T00:04:41;12;12;
39955;PMS5003;25631;51.516;-0.470;2023-05-14T00:07:18;12;12;
39955;PMS5003;25631;51.516;-0.470;2023-05-14T00:09:55;13;12;
39955;PMS5003;25631;51.516;-0.470;2023-05-14T00:12:31;15;14;
39955;PMS5003;25631;51.516;-0.470;2023-05-14T00:15:08;10;9;
39955;PMS5003;25631;51.516;-0.470;2023-05-14T00:17:45;11;10;
39955;PMS5003;25631;51.516;-0.470;2023-05-14T00:20:21;16;16;
39955;PMS5003;25631;51.516;-0.470;2023-05-14T00:22:58;15;15;
39955;PMS5003;25631;51.516;-0.470;2023-05-14T00:25:35;14;14;
39955;PMS5003;25631;51.516;-0.470;2023-05-14T00:28:12;16;15;
39955;PMS5003;25631;51.516;-0.470;2023-05-14T00:30:48;15;14;
39955;PMS5003;25631;51.516;-0.470;2023-05-14T00:33:25;12;12;
39955;PMS5003;25631;51.516;-0.470;2023-05-14T00:36:02;13;13;
39955;PMS5003;25631;51.516;-0.470;2023-05-14T00:38:39;12;12;
39955;PMS5003;25631;51.516;-0.470;2023-05-14T00:41:15;16;13;
39955;PMS5003;25631;51.516;-0.470;2023-05-14T00:43:51;17;15;
39955;PMS5003;25631;51.516;-0.470;2023-05-14T00:46:28;14;13;
39955;PMS5003;25631;51.516;-0.470;2023-05-14T00:49:05;11;11;
39955;PMS5003;25631;51.516;-0.470;2023-05-14T00:51:41;12;11;
39955;PMS5003;25631;51.516;-0.470;2023-05-14T00:54:18;11;11;
39955;PMS5003;25631;51.516;-0.470;2023-05-14T00:56:55;12;12;
39955;PMS5003;25631;51.516;-0.470;2023-05-14T00:59:32;12;12;
39955;PMS5003;25631;51.516;-0.470;2023-05-14T01:02:09;10;10;
39955;PMS5003;25631;51.516;-0.470;2023-05-14T01:04:46;12;11;
39955;PMS5003;25631;51.516;-0.470;2023-05-14T01:07:25;10;10;
39955;PMS5003;25631;51.516;-0.470;2023-05-14T01:10:07;10;10;
39955;PMS5003;25631;51.516;-0.470;2023-05-14T01:12:50;11;11;
39955;PMS5003;25631;51.516;-0.470;2023-05-14T01:15:34;11;11;
39955;PMS5003;25631;51.516;-0.470;2023-05-14T01:18:15;11;11;
39955;PMS5003;25631;51.516;-0.470;2023-05-14T01:20:53;11;10;
39955;PMS5003;25631;51.516;-0.470;2023-05-14T01:23:30;14;13;
39955;PMS5003;25631;51.516;-0.470;2023-05-14T01:26:07;14;14;
39955;PMS5003;25631;51.516;-0.470;2023-05-14T01:28:43;10;10;
39955;PMS5003;25631;51.516;-0.470;2023-05-14T01:31:21;10;10;
39955;PMS5003;25631;51.516;-0.470;2023-05-14T01:34:00;10;10;
39955;PMS5003;25631;51.516;-0.470;2023-05-14T01:36:40;14;13;
39955;PMS5003;25631;51.516;-0.470;2023-05-14T01:39:17;13;12;
39955;PMS5003;25631;51.516;-0.470;2023-05-14T01:41:55;14;13;
39955;PMS5003;25631;51.516;-0.470;2023-05-14T01:44:32;14;13;
39955;PMS5003;25631;51.516;-0.470;2023-05-14T01:47:09;15;13;
39955;PMS5003;25631;51.516;-0.470;2023-05-14T01:49:45;13;12;
39955;PMS5003;25631;51.516;-0.470;2023-05-14T01:52:22;13;12;
39955;PMS5003;25631;51.516;-0.470;2023-05-14T01:54:58;12;10;
39955;PMS5003;25631;51.516;-0.470;2023-05-14T01:57:35;12;11;
39955;PMS5003;25631;51.516;-0.470;2023-05-14T02:00:12;11;11;
39955;PMS5003;25631;51.516;-0.470;2023-05-14T02:02:48;10;9;
39955;PMS5003;25631;51.516;-0.470;2023-05-14T02:05:25;12;11;
39955;PMS5003;25631;51.516;-0.470;2023-05-14T02:08:01;13;12;
39955;PMS5003;25631;51.516;-0.470;2023-05-14T02:10:38;14;10;
39955;PMS5003;25631;51.516;-0.470;2023-05-14T02:13:15;14;10;
39955;PMS5003;25631;51.516;-0.470;2023-05-14T02:15:51;10;10;
39955;PMS5003;25631;51.516;-0.470;2023-05-14T02:18:28;9;9;
39955;PMS5003;25631;51.516;-0.470;2023-05-14T02:21:04;11;10;
39955;PMS5003;25631;51.516;-0.470;2023-05-14T02:23:41;12;12;
39955;PMS5003;25631;51.516;-0.470;2023-05-14T02:26:17;10;10;
39955;PMS5003;25631;51.516;-0.470;2023-05-14T02:28:54;12;12;
39955;PMS5003;25631;51.516;-0.470;2023-05-14T02:31:30;14;13;
39955;PMS5003;25631;51.516;-0.470;2023-05-14T02:34:06;15;14;
39955;PMS5003;25631;51.516;-0.470;2023-05-14T02:36:43;9;9;
39955;PMS5003;25631;51.516;-0.470;2023-05-14T02:39:20;10;10;
39955;PMS5003;25631;51.516;-0.470;2023-05-14T02:41:57;11;11;
39955;PMS5003;25631;51.516;-0.470;2023-05-14T02:44:33;8;8;
39955;PMS5003;25631;51.516;-0.470;2023-05-14T02:47:10;8;8;
39955;PMS5003;25631;51.516;-0.470;2023-05-14T02:49:46;9;8;
39955;PMS5003;25631;51.516;-0.470;2023-05-14T02:52:23;9;8;
39955;PMS5003;25631;51.516;-0.470;2023-05-14T02:54:59;8;8;
39955;PMS5003;25631;51.516;-0.470;2023-05-14T02:57:36;11;11;
39955;PMS5003;25631;51.516;-0.470;2023-05-14T03:00:13;11;11;
39955;PMS5003;25631;51.516;-0.470;2023-05-14T03:02:50;10;9;
39955;PMS5003;25631;51.516;-0.470;2023-05-14T03:05:26;11;10;
39955;PMS5003;25631;51.516;-0.470;2023-05-14T03:08:03;11;10;
39955;PMS5003;25631;51.516;-0.470;2023-05-14T03:10:39;8;8;
39955;PMS5003;25631;51.516;-0.470;2023-05-14T03:13:16;10;10;
39955;PMS5003;25631;51.516;-0.470;2023-05-14T03:15:53;10;10;
39955;PMS5003;25631;51.516;-0.470;2023-05-14T03:18:29;12;12;
39955;PMS5003;25631;51.516;-0.470;2023-05-14T03:21:05;12;12;
39955;PMS5003;25631;51.516;-0.470;2023-05-14T03:23:42;9;8;
39955;PMS5003;25631;51.516;-0.470;2023-05-14T03:26:19;10;9;
39955;PMS5003;25631;51.516;-0.470;2023-05-14T03:28:55;11;9;
39955;PMS5003;25631;51.516;-0.470;2023-05-14T03:31:32;10;10;
39955;PMS5003;25631;51.516;-0.470;2023-05-14T03:34:08;11;10;
39955;PMS5003;25631;51.516;-0.470;2023-05-14T03:36:45;11;10;
39955;PMS5003;25631;51.516;-0.470;2023-05-14T03:39:21;10;10;
39955;PMS5003;25631;51.516;-0.470;2023-05-14T03:41:58;10;10;
39955;PMS5003;25631;51.516;-0.470;2023-05-14T03:44:34;11;10;
39955;PMS5003;25631;51.516;-0.470;2023-05-14T03:47:11;10;10;
39955;PMS5003;25631;51.516;-0.470;2023-05-14T03:49:47;11;11;
39955;PMS5003;25631;51.516;-0.470;2023-05-14T03:52:24;11;11;
39955;PMS5003;25631;51.516;-0.470;2023-05-14T03:55:01;12;12;
39955;PMS5003;25631;51.516;-0.470;2023-05-14T03:57:37;10;10;
39955;PMS5003;25631;51.516;-0.470;2023-05-14T04:00:15;10;10;
39955;PMS5003;25631;51.516;-0.470;2023-05-14T04:02:51;11;11;
39955;PMS5003;25631;51.516;-0.470;2023-05-14T04:05:28;13;12;
39955;PMS5003;25631;51.516;-0.470;2023-05-14T04:08:04;12;12;
39955;PMS5003;25631;51.516;-0.470;2023-05-14T04:10:41;13;12;
39955;PMS5003;25631;51.516;-0.470;2023-05-14T04:13:18;12;11;
39955;PMS5003;25631;51.516;-0.470;2023-05-14T04:15:54;12;12;
39955;PMS5003;25631;51.516;-0.470;2023-05-14T04:18:31;18;18;
39955;PMS5003;25631;51.516;-0.470;2023-05-14T04:21:08;19;19;
39955;PMS5003;25631;51.516;-0.470;2023-05-14T04:23:44;20;20;
39955;PMS5003;25631;51.516;-0.470;2023-05-14T04:26:21;12;12;
39955;PMS5003;25631;51.516;-0.470;2023-05-14T04:28:57;14;13;
39955;PMS5003;25631;51.516;-0.470;2023-05-14T04:31:34;19;17;
39955;PMS5003;25631;51.516;-0.470;2023-05-14T04:34:11;19;17;
39955;PMS5003;25631;51.516;-0.470;2023-05-14T04:36:47;17;16;
39955;PMS5003;25631;51.516;-0.470;2023-05-14T04:39:24;16;16;
39955;PMS5003;25631;51.516;-0.470;2023-05-14T04:42:01;16;16;
39955;PMS5003;25631;51.516;-0.470;2023-05-14T04:44:37;13;12;
39955;PMS5003;25631;51.516;-0.470;2023-05-14T04:47:14;14;13;
39955;PMS5003;25631;51.516;-0.470;2023-05-14T04:49:50;16;15;
39955;PMS5003;25631;51.516;-0.470;2023-05-14T04:52:27;11;11;
39955;PMS5003;25631;51.516;-0.470;2023-05-14T04:55:04;11;11;
39955;PMS5003;25631;51.516;-0.470;2023-05-14T04:57:41;13;13;
39955;PMS5003;25631;51.516;-0.470;2023-05-14T05:00:18;11;11;
39955;PMS5003;25631;51.516;-0.470;2023-05-14T05:02:54;11;11;
39955;PMS5003;25631;51.516;-0.470;2023-05-14T05:05:31;11;11;
39955;PMS5003;25631;51.516;-0.470;2023-05-14T05:08:07;12;11;
39955;PMS5003;25631;51.516;-0.470;2023-05-14T05:10:44;11;11;
39955;PMS5003;25631;51.516;-0.470;2023-05-14T05:13:20;12;11;
39955;PMS5003;25631;51.516;-0.470;2023-05-14T05:15:57;12;12;
39955;PMS5003;25631;51.516;-0.470;2023-05-14T05:18:33;9;9;
39955;PMS5003;25631;51.516;-0.470;2023-05-14T05:21:10;10;10;
39955;PMS5003;25631;51.516;-0.470;2023-05-14T05:23:46;11;11;
39955;PMS5003;25631;51.516;-0.470;2023-05-14T05:26:23;12;11;
39955;PMS5003;25631;51.516;-0.470;2023-05-14T05:29:00;13;12;
39955;PMS5003;25631;51.516;-0.470;2023-05-14T05:31:37;12;11;
39955;PMS5003;25631;51.516;-0.470;2023-05-14T05:34:13;16;13;
39955;PMS5003;25631;51.516;-0.470;2023-05-14T05:36:50;16;13;
39955;PMS5003;25631;51.516;-0.470;2023-05-14T05:39:26;16;11;
39955;PMS5003;25631;51.516;-0.470;2023-05-14T05:42:08;15;11;
39955;PMS5003;25631;51.516;-0.470;2023-05-14T05:44:45;14;11;
39955;PMS5003;25631;51.516;-0.470;2023-05-14T05:47:21;13;12;
39955;PMS5003;25631;51.516;-0.470;2023-05-14T05:49:58;12;11;
39955;PMS5003;25631;51.516;-0.470;2023-05-14T05:52:35;11;11;
39955;PMS5003;25631;51.516;-0.470;2023-05-14T05:55:11;11;10;
39955;PMS5003;25631;51.516;-0.470;2023-05-14T05:57:48;11;11;
39955;PMS5003;25631;51.516;-0.470;2023-05-14T06:00:24;11;11;
39955;PMS5003;25631;51.516;-0.470;2023-05-14T06:03:01;10;9;
39955;PMS5003;25631;51.516;-0.470;2023-05-14T06:05:37;14;13;
39955;PMS5003;25631;51.516;-0.470;2023-05-14T06:08:14;14;13;
39955;PMS5003;25631;51.516;-0.470;2023-05-14T06:10:50;13;11;
39955;PMS5003;25631;51.516;-0.470;2023-05-14T06:13:27;12;11;
39955;PMS5003;25631;51.516;-0.470;2023-05-14T06:16:03;13;11;
39955;PMS5003;25631;51.516;-0.470;2023-05-14T06:18:40;11;10;
39955;PMS5003;25631;51.516;-0.470;2023-05-14T06:21:16;12;12;
39955;PMS5003;25631;51.516;-0.470;2023-05-14T06:23:53;12;12;
39955;PMS5003;25631;51.516;-0.470;2023-05-14T06:26:30;13;11;
39955;PMS5003;25631;51.516;-0.470;2023-05-14T06:29:06;12;10;
39955;PMS5003;25631;51.516;-0.470;2023-05-14T06:31:43;12;10;
39955;PMS5003;25631;51.516;-0.470;2023-05-14T06:34:19;13;13;
39955;PMS5003;25631;51.516;-0.470;2023-05-14T06:36:56;13;12;
39955;PMS5003;25631;51.516;-0.470;2023-05-14T06:39:32;13;13;
39955;PMS5003;25631;51.516;-0.470;2023-05-14T06:42:09;13;13;
39955;PMS5003;25631;51.516;-0.470;2023-05-14T06:44:45;14;13;
39955;PMS5003;25631;51.516;-0.470;2023-05-14T06:47:21;16;16;
39955;PMS5003;25631;51.516;-0.470;2023-05-14T06:49:58;16;16;
39955;PMS5003;25631;51.516;-0.470;2023-05-14T06:52:35;13;12;
39955;PMS5003;25631;51.516;-0.470;2023-05-14T06:55:12;11;10;
39955;PMS5003;25631;51.516;-0.470;2023-05-14T06:57:48;11;11;
39955;PMS5003;25631;51.516;-0.470;2023-05-14T07:00:25;12;12;
39955;PMS5003;25631;51.516;-0.470;2023-05-14T07:03:01;12;12;
39955;PMS5003;25631;51.516;-0.470;2023-05-14T07:05:38;12;12;
39955;PMS5003;25631;51.516;-0.470;2023-05-14T07:08:14;15;13;
39955;PMS5003;25631;51.516;-0.470;2023-05-14T07:10:51;17;15;
39955;PMS5003;25631;51.516;-0.470;2023-05-14T07:13:27;12;12;
39955;PMS5003;25631;51.516;-0.470;2023-05-14T07:16:04;14;14;
39955;PMS5003;25631;51.516;-0.470;2023-05-14T07:18:41;15;15;
39955;PMS5003;25631;51.516;-0.470;2023-05-14T07:21:19;17;16;
39955;PMS5003;25631;51.516;-0.470;2023-05-14T07:23:55;15;14;
39955;PMS5003;25631;51.516;-0.470;2023-05-14T07:26:32;13;13;
39955;PMS5003;25631;51.516;-0.470;2023-05-14T07:29:09;13;12;
39955;PMS5003;25631;51.516;-0.470;2023-05-14T07:31:45;14;13;
39955;PMS5003;25631;51.516;-0.470;2023-05-14T07:34:22;16;15;
39955;PMS5003;25631;51.516;-0.470;2023-05-14T07:36:58;18;16;
39955;PMS5003;25631;51.516;-0.470;2023-05-14T07:39:35;20;20;
39955;PMS5003;25631;51.516;-0.470;2023-05-14T07:42:13;19;19;
39955;PMS5003;25631;51.516;-0.470;2023-05-14T07:44:49;17;17;
39955;PMS5003;25631;51.516;-0.470;2023-05-14T07:47:26;19;18;
39955;PMS5003;25631;51.516;-0.470;2023-05-14T07:50:02;18;17;
39955;PMS5003;25631;51.516;-0.470;2023-05-14T07:52:39;19;17;
39955;PMS5003;25631;51.516;-0.470;2023-05-14T07:55:15;19;18;
39955;PMS5003;25631;51.516;-0.470;2023-05-14T07:57:52;18;18;
39955;PMS5003;25631;51.516;-0.470;2023-05-14T08:00:29;21;19;
39955;PMS5003;25631;51.516;-0.470;2023-05-14T08:03:05;22;20;
39955;PMS5003;25631;51.516;-0.470;2023-05-14T08:05:42;22;20;
39955;PMS5003;25631;51.516;-0.470;2023-05-14T08:08:18;21;19;
39955;PMS5003;25631;51.516;-0.470;2023-05-14T08:10:55;21;18;
39955;PMS5003;25631;51.516;-0.470;2023-05-14T08:13:31;16;15;
39955;PMS5003;25631;51.516;-0.470;2023-05-14T08:16:08;18;16;
39955;PMS5003;25631;51.516;-0.470;2023-05-14T08:18:45;24;21;
39955;PMS5003;25631;51.516;-0.470;2023-05-14T08:21:22;24;22;
39955;PMS5003;25631;51.516;-0.470;2023-05-14T08:23:58;24;22;
39955;PMS5003;25631;51.516;-0.470;2023-05-14T08:26:35;20;19;
39955;PMS5003;25631;51.516;-0.470;2023-05-14T08:29:12;18;18;
39955;PMS5003;25631;51.516;-0.470;2023-05-14T08:31:49;17;17;
39955;PMS5003;25631;51.516;-0.470;2023-05-14T08:34:25;13;13;
39955;PMS5003;25631;51.516;-0.470;2023-05-14T08:37:02;14;14;
39955;PMS5003;25631;51.516;-0.470;2023-05-14T08:39:39;16;16;
39955;PMS5003;25631;51.516;-0.470;2023-05-14T08:42:15;15;14;
39955;PMS5003;25631;51.516;-0.470;2023-05-14T08:44:57;14;13;
39955;PMS5003;25631;51.516;-0.470;2023-05-14T08:47:36;14;12;
39955;PMS5003;25631;51.516;-0.470;2023-05-14T08:50:13;13;12;
39955;PMS5003;25631;51.516;-0.470;2023-05-14T08:52:50;11;10;
39955;PMS5003;25631;51.516;-0.470;2023-05-14T08:55:27;11;10;
39955;PMS5003;25631;51.516;-0.470;2023-05-14T08:58:05;11;11;
39955;PMS5003;25631;51.516;-0.470;2023-05-14T09:00:42;16;15;
39955;PMS5003;25631;51.516;-0.470;2023-05-14T09:03:19;19;17;
39955;PMS5003;25631;51.516;-0.470;2023-05-14T09:05:55;19;18;
39955;PMS5003;25631;51.516;-0.470;2023-05-14T09:08:32;17;14;
39955;PMS5003;25631;51.516;-0.470;2023-05-14T09:11:09;15;13;
39955;PMS5003;25631;51.516;-0.470;2023-05-14T09:13:46;12;12;
39955;PMS5003;25631;51.516;-0.470;2023-05-14T09:16:22;12;12;
39955;PMS5003;25631;51.516;-0.470;2023-05-14T09:19:00;11;11;
39955;PMS5003;25631;51.516;-0.470;2023-05-14T09:21:37;11;10;
39955;PMS5003;25631;51.516;-0.470;2023-05-14T09:24:18;10;10;
39955;PMS5003;25631;51.516;-0.470;2023-05-14T09:26:55;10;10;
39955;PMS5003;25631;51.516;-0.470;2023-05-14T09:29:33;13;12;
39955;PMS5003;25631;51.516;-0.470;2023-05-14T09:32:09;14;14;
39955;PMS5003;25631;51.516;-0.470;2023-05-14T09:34:46;12;10;
39955;PMS5003;25631;51.516;-0.470;2023-05-14T09:37:22;11;10;
39955;PMS5003;25631;51.516;-0.470;2023-05-14T09:40:03;11;10;
39955;PMS5003;25631;51.516;-0.470;2023-05-14T09:42:41;12;10;
39955;PMS5003;25631;51.516;-0.470;2023-05-14T09:45:17;12;10;
39955;PMS5003;25631;51.516;-0.470;2023-05-14T09:47:54;9;8;
39955;PMS5003;25631;51.516;-0.470;2023-05-14T09:50:31;9;8;
39955;PMS5003;25631;51.516;-0.470;2023-05-14T09:53:07;9;8;
39955;PMS5003;25631;51.516;-0.470;2023-05-14T09:55:45;11;8;
39955;PMS5003;25631;51.516;-0.470;2023-05-14T09:58:21;11;9;
39955;PMS5003;25631;51.516;-0.470;2023-05-14T10:00:58;11;8;
39955;PMS5003;25631;51.516;-0.470;2023-05-14T10:03:36;5;5;
39955;PMS5003;25631;51.516;-0.470;2023-05-14T10:06:12;7;7;
39955;PMS5003;25631;51.516;-0.470;2023-05-14T10:08:54;9;8;
39955;PMS5003;25631;51.516;-0.470;2023-05-14T10:11:33;9;8;
39955;PMS5003;25631;51.516;-0.470;2023-05-14T10:14:13;8;7;
39955;PMS5003;25631;51.516;-0.470;2023-05-14T10:16:54;7;7;
39955;PMS5003;25631;51.516;-0.470;2023-05-14T10:19:33;7;7;
39955;PMS5003;25631;51.516;-0.470;2023-05-14T10:22:12;7;7;
39955;PMS5003;25631;51.516;-0.470;2023-05-14T10:24:52;9;8;
39955;PMS5003;25631;51.516;-0.470;2023-05-14T10:27:30;8;8;
39955;PMS5003;25631;51.516;-0.470;2023-05-14T10:30:09;8;8;
39955;PMS5003;25631;51.516;-0.470;2023-05-14T10:32:46;8;8;
39955;PMS5003;25631;51.516;-0.470;2023-05-14T10:35:23;9;8;
39955;PMS5003;25631;51.516;-0.470;2023-05-14T10:37:59;8;8;
39955;PMS5003;25631;51.516;-0.470;2023-05-14T10:40:36;8;8;
39955;PMS5003;25631;51.516;-0.470;2023-05-14T10:43:14;9;8;
39955;PMS5003;25631;51.516;-0.470;2023-05-14T10:45:52;10;9;
39955;PMS5003;25631;51.516;-0.470;2023-05-14T10:48:30;10;9;
39955;PMS5003;25631;51.516;-0.470;2023-05-14T10:51:07;11;9;
39955;PMS5003;25631;51.516;-0.470;2023-05-14T10:53:45;10;9;
39955;PMS5003;25631;51.516;-0.470;2023-05-14T10:56:23;8;8;
39955;PMS5003;25631;51.516;-0.470;2023-05-14T10:59:01;7;6;
39955;PMS5003;25631;51.516;-0.470;2023-05-14T11:01:39;8;8;
39955;PMS5003;25631;51.516;-0.470;2023-05-14T11:04:16;7;7;
39955;PMS5003;25631;51.516;-0.470;2023-05-14T11:06:53;7;7;
39955;PMS5003;25631;51.516;-0.470;2023-05-14T11:09:31;8;8;
39955;PMS5003;25631;51.516;-0.470;2023-05-14T11:12:08;8;8;
39955;PMS5003;25631;51.516;-0.470;2023-05-14T11:14:45;6;6;
39955;PMS5003;25631;51.516;-0.470;2023-05-14T11:17:22;8;8;
39955;PMS5003;25631;51.516;-0.470;2023-05-14T11:19:59;7;7;
39955;PMS5003;25631;51.516;-0.470;2023-05-14T11:22:36;9;9;
39955;PMS5003;25631;51.516;-0.470;2023-05-14T11:25:14;9;9;
39955;PMS5003;25631;51.516;-0.470;2023-05-14T11:27:50;10;10;
39955;PMS5003;25631;51.516;-0.470;2023-05-14T11:30:27;10;9;
39955;PMS5003;25631;51.516;-0.470;2023-05-14T11:33:06;9;9;
39955;PMS5003;25631;51.516;-0.470;2023-05-14T11:35:43;7;6;
39955;PMS5003;25631;51.516;-0.470;2023-05-14T11:38:20;7;6;
39955;PMS5003;25631;51.516;-0.470;2023-05-14T11:40:57;7;7;
39955;PMS5003;25631;51.516;-0.470;2023-05-14T11:43:34;9;9;
39955;PMS5003;25631;51.516;-0.470;2023-05-14T11:46:15;9;8;
39955;PMS5003;25631;51.516;-0.470;2023-05-14T11:48:52;8;5;
39955;PMS5003;25631;51.516;-0.470;2023-05-14T11:51:28;8;5;
39955;PMS5003;25631;51.516;-0.470;2023-05-14T11:54:05;5;5;
39955;PMS5003;25631;51.516;-0.470;2023-05-14T11:56:42;6;6;
39955;PMS5003;25631;51.516;-0.470;2023-05-14T11:59:24;7;7;
39955;PMS5003;25631;51.516;-0.470;2023-05-14T12:02:02;5;5;
39955;PMS5003;25631;51.516;-0.470;2023-05-14T12:04:41;13;13;
39955;PMS5003;25631;51.516;-0.470;2023-05-14T12:07:20;13;13;
39955;PMS5003;25631;51.516;-0.470;2023-05-14T12:09:59;8;7;
39955;PMS5003;25631;51.516;-0.470;2023-05-14T12:12:36;7;7;
39955;PMS5003;25631;51.516;-0.470;2023-05-14T12:15:13;8;7;
39955;PMS5003;25631;51.516;-0.470;2023-05-14T12:17:51;7;6;
39955;PMS5003;25631;51.516;-0.470;2023-05-14T12:20:28;6;6;
39955;PMS5003;25631;51.516;-0.470;2023-05-14T12:23:05;6;6;
39955;PMS5003;25631;51.516;-0.470;2023-05-14T12:25:48;5;5;
39955;PMS5003;25631;51.516;-0.470;2023-05-14T12:28:25;7;6;
39955;PMS5003;25631;51.516;-0.470;2023-05-14T12:31:02;6;5;
39955;PMS5003;25631;51.516;-0.470;2023-05-14T12:33:38;6;5;
39955;PMS5003;25631;51.516;-0.470;2023-05-14T12:36:15;5;4;
39955;PMS5003;25631;51.516;-0.470;2023-05-14T12:38:56;7;5;
39955;PMS5003;25631;51.516;-0.470;2023-05-14T12:41:34;8;7;
39955;PMS5003;25631;51.516;-0.470;2023-05-14T12:44:11;6;5;
39955;PMS5003;25631;51.516;-0.470;2023-05-14T12:46:48;6;5;
39955;PMS5003;25631;51.516;-0.470;2023-05-14T12:49:24;5;5;
39955;PMS5003;25631;51.516;-0.470;2023-05-14T12:52:01;7;6;
39955;PMS5003;25631;51.516;-0.470;2023-05-14T12:54:37;6;6;
39955;PMS5003;25631;51.516;-0.470;2023-05-14T12:57:14;9;8;
39955;PMS5003;25631;51.516;-0.470;2023-05-14T12:59:50;10;9;
39955;PMS5003;25631;51.516;-0.470;2023-05-14T13:02:27;9;9;
39955;PMS5003;25631;51.516;-0.470;2023-05-14T13:05:03;8;8;
39955;PMS5003;25631;51.516;-0.470;2023-05-14T13:07:40;8;8;
39955;PMS5003;25631;51.516;-0.470;2023-05-14T13:10:17;9;8;
39955;PMS5003;25631;51.516;-0.470;2023-05-14T13:12:53;10;9;
39955;PMS5003;25631;51.516;-0.470;2023-05-14T13:15:30;9;8;
39955;PMS5003;25631;51.516;-0.470;2023-05-14T13:18:06;8;8;
39955;PMS5003;25631;51.516;-0.470;2023-05-14T13:20:43;9;9;
39955;PMS5003;25631;51.516;-0.470;2023-05-14T13:23:21;9;9;
39955;PMS5003;25631;51.516;-0.470;2023-05-14T13:25:57;8;8;
39955;PMS5003;25631;51.516;-0.470;2023-05-14T13:28:34;7;7;
39955;PMS5003;25631;51.516;-0.470;2023-05-14T13:31:11;9;8;
39955;PMS5003;25631;51.516;-0.470;2023-05-14T13:33:48;9;8;
39955;PMS5003;25631;51.516;-0.470;2023-05-14T13:36:24;9;7;
39955;PMS5003;25631;51.516;-0.470;2023-05-14T13:39:01;9;8;
39955;PMS5003;25631;51.516;-0.470;2023-05-14T13:41:38;8;8;
39955;PMS5003;25631;51.516;-0.470;2023-05-14T13:44:14;7;6;
39955;PMS5003;25631;51.516;-0.470;2023-05-14T13:46:51;8;6;
39955;PMS5003;25631;51.516;-0.470;2023-05-14T13:49:28;7;6;
39955;PMS5003;25631;51.516;-0.470;2023-05-14T13:52:05;8;6;
39955;PMS5003;25631;51.516;-0.470;2023-05-14T13:54:42;6;6;
39955;PMS5003;25631;51.516;-0.470;2023-05-14T13:57:21;9;7;
39955;PMS5003;25631;51.516;-0.470;2023-05-14T13:59:58;9;7;
39955;PMS5003;25631;51.516;-0.470;2023-05-14T14:02:35;8;7;
39955;PMS5003;25631;51.516;-0.470;2023-05-14T14:05:12;7;7;
39955;PMS5003;25631;51.516;-0.470;2023-05-14T14:07:49;8;7;
39955;PMS5003;25631;51.516;-0.470;2023-05-14T14:10:27;8;8;
39955;PMS5003;25631;51.516;-0.470;2023-05-14T14:13:03;8;7;
39955;PMS5003;25631;51.516;-0.470;2023-05-14T14:15:40;7;6;
39955;PMS5003;25631;51.516;-0.470;2023-05-14T14:18:16;7;7;
39955;PMS5003;25631;51.516;-0.470;2023-05-14T14:20:53;7;7;
39955;PMS5003;25631;51.516;-0.470;2023-05-14T14:23:30;6;6;
39955;PMS5003;25631;51.516;-0.470;2023-05-14T14:26:06;7;7;
39955;PMS5003;25631;51.516;-0.470;2023-05-14T14:28:43;8;8;
39955;PMS5003;25631;51.516;-0.470;2023-05-14T14:31:19;8;8;
39955;PMS5003;25631;51.516;-0.470;2023-05-14T14:33:56;8;8;
39955;PMS5003;25631;51.516;-0.470;2023-05-14T14:36:33;7;7;
39955;PMS5003;25631;51.516;-0.470;2023-05-14T14:39:09;8;8;
39955;PMS5003;25631;51.516;-0.470;2023-05-14T14:41:46;6;6;
39955;PMS5003;25631;51.516;-0.470;2023-05-14T14:44:22;7;7;
39955;PMS5003;25631;51.516;-0.470;2023-05-14T14:46:59;6;6;
39955;PMS5003;25631;51.516;-0.470;2023-05-14T14:49:35;7;7;
39955;PMS5003;25631;51.516;-0.470;2023-05-14T14:52:12;8;8;
39955;PMS5003;25631;51.516;-0.470;2023-05-14T14:54:48;7;7;
39955;PMS5003;25631;51.516;-0.470;2023-05-14T14:57:25;6;6;
39955;PMS5003;25631;51.516;-0.470;2023-05-14T15:00:01;6;6;
39955;PMS5003;25631;51.516;-0.470;2023-05-14T15:02:38;9;8;
39955;PMS5003;25631;51.516;-0.470;2023-05-14T15:05:15;8;7;
39955;PMS5003;25631;51.516;-0.470;2023-05-14T15:07:52;8;7;
39955;PMS5003;25631;51.516;-0.470;2023-05-14T15:10:29;8;6;
39955;PMS5003;25631;51.516;-0.470;2023-05-14T15:13:06;5;5;
39955;PMS5003;25631;51.516;-0.470;2023-05-14T15:15:43;5;5;
39955;PMS5003;25631;51.516;-0.470;2023-05-14T15:18:19;9;8;
39955;PMS5003;25631;51.516;-0.470;2023-05-14T15:20:56;8;7;
39955;PMS5003;25631;51.516;-0.470;2023-05-14T15:23:33;8;7;
39955;PMS5003;25631;51.516;-0.470;2023-05-14T15:26:09;5;5;
39955;PMS5003;25631;51.516;-0.470;2023-05-14T15:28:46;6;5;
39955;PMS5003;25631;51.516;-0.470;2023-05-14T15:31:22;5;5;
39955;PMS5003;25631;51.516;-0.470;2023-05-14T15:34:00;6;6;
39955;PMS5003;25631;51.516;-0.470;2023-05-14T15:36:36;6;6;
39955;PMS5003;25631;51.516;-0.470;2023-05-14T15:39:13;6;5;
39955;PMS5003;25631;51.516;-0.470;2023-05-14T15:41:49;5;4;
39955;PMS5003;25631;51.516;-0.470;2023-05-14T15:44:25;7;6;
39955;PMS5003;25631;51.516;-0.470;2023-05-14T15:47:02;7;6;
39955;PMS5003;25631;51.516;-0.470;2023-05-14T15:49:39;7;6;
39955;PMS5003;25631;51.516;-0.470;2023-05-14T15:52:16;6;6;
39955;PMS5003;25631;51.516;-0.470;2023-05-14T15:54:52;4;4;
39955;PMS5003;25631;51.516;-0.470;2023-05-14T15:57:29;7;5;
39955;PMS5003;25631;51.516;-0.470;2023-05-14T16:00:06;6;4;
39955;PMS5003;25631;51.516;-0.470;2023-05-14T16:02:43;5;3;
39955;PMS5003;25631;51.516;-0.470;2023-05-14T16:05:20;7;6;
39955;PMS5003;25631;51.516;-0.470;2023-05-14T16:07:57;6;5;
39955;PMS5003;25631;51.516;-0.470;2023-05-14T16:10:33;5;4;
39955;PMS5003;25631;51.516;-0.470;2023-05-14T16:13:10;6;6;
39955;PMS5003;25631;51.516;-0.470;2023-05-14T16:15:46;6;5;
39955;PMS5003;25631;51.516;-0.470;2023-05-14T16:18:23;4;4;
39955;PMS5003;25631;51.516;-0.470;2023-05-14T16:20:59;5;4;
39955;PMS5003;25631;51.516;-0.470;2023-05-14T16:23:36;5;4;
39955;PMS5003;25631;51.516;-0.470;2023-05-14T16:26:12;5;5;
39955;PMS5003;25631;51.516;-0.470;2023-05-14T16:28:49;5;4;
39955;PMS5003;25631;51.516;-0.470;2023-05-14T16:31:25;7;5;
39955;PMS5003;25631;51.516;-0.470;2023-05-14T16:34:02;7;5;
39955;PMS5003;25631;51.516;-0.470;2023-05-14T16:36:38;7;5;
39955;PMS5003;25631;51.516;-0.470;2023-05-14T16:39:15;8;6;
39955;PMS5003;25631;51.516;-0.470;2023-05-14T16:41:51;8;6;
39955;PMS5003;25631;51.516;-0.470;2023-05-14T16:44:28;6;5;
39955;PMS5003;25631;51.516;-0.470;2023-05-14T16:47:04;6;4;
39955;PMS5003;25631;51.516;-0.470;2023-05-14T16:49:41;6;5;
39955;PMS5003;25631;51.516;-0.470;2023-05-14T16:52:18;5;5;
39955;PMS5003;25631;51.516;-0.470;2023-05-14T16:54:54;4;4;
39955;PMS5003;25631;51.516;-0.470;2023-05-14T16:57:31;3;3;
39955;PMS5003;25631;51.516;-0.470;2023-05-14T17:00:08;8;7;
39955;PMS5003;25631;51.516;-0.470;2023-05-14T17:02:46;9;7;
39955;PMS5003;25631;51.516;-0.470;2023-05-14T17:05:23;7;6;
39955;PMS5003;25631;51.516;-0.470;2023-05-14T17:07:59;7;7;
39955;PMS5003;25631;51.516;-0.470;2023-05-14T17:10:36;7;7;
39955;PMS5003;25631;51.516;-0.470;2023-05-14T17:13:12;7;6;
39955;PMS5003;25631;51.516;-0.470;2023-05-14T17:15:49;7;5;
39955;PMS5003;25631;51.516;-0.470;2023-05-14T17:18:25;8;5;
39955;PMS5003;25631;51.516;-0.470;2023-05-14T17:21:02;6;5;